ESOK/KSD METAR and TAF weather

Enter ICAO airport designator
Station Type Date Time Source
ESOK METAR 2019/12/06 03:50 UTC NOAA

ESOK 060350Z AUTO 19012KT 9999 -RA OVC004/// 05/05 Q0983


Station Type Date Time Source
ESOK Decoded METAR 2019/12/06 03:50 UTC NOAA

Karlstad , Sweden (ESOK) 59-26-41N 013-20-15E
Dec 05, 2019 - 10:50 PM EST / 2019.12.06 0350 UTC
Wind: from the S (190 degrees) at 14 MPH (12 KT):0
Visibility: greater than 7 mile(s):0
Sky conditions: overcast
Weather: light rain
Temperature: 41 F (5 C)
Dew Point: 41 F (5 C)
Relative Humidity: 100%
Pressure (altimeter): 29.03 in. Hg (0983 hPa)
ob: ESOK 060350Z AUTO 19012KT 9999 -RA OVC004/// 05/05 Q0983
cycle: 4

Station Type Date Time Source
ESOK TAF 2017/05/22 06:33 UTC NOAA

TAF ESOK 220530Z 2206/2224 28006KT CAVOK

Example: see airport list